createdAt,value
2022-10-17T00:00:16.483Z,38.80
2022-10-17T00:02:51.100Z,35.90
2022-10-17T00:05:25.392Z,41.75
2022-10-17T00:07:59.136Z,36.80
2022-10-17T00:10:33.369Z,43.22
2022-10-17T00:13:10.263Z,40.80
2022-10-17T00:15:46.972Z,38.10
2022-10-17T00:18:17.408Z,37.45
2022-10-17T00:20:51.186Z,35.40
2022-10-17T00:23:27.675Z,30.73
2022-10-17T00:26:02.842Z,37.08
2022-10-17T00:28:40.144Z,37.73
2022-10-17T00:31:14.586Z,42.15
2022-10-17T00:33:50.286Z,32.30
2022-10-17T00:36:24.717Z,39.42
2022-10-17T00:39:00.433Z,29.95
2022-10-17T00:41:35.990Z,28.05
2022-10-17T00:44:40.926Z,36.67
2022-10-17T00:47:18.798Z,33.95
2022-10-17T00:49:54.135Z,29.60
2022-10-17T00:52:29.625Z,41.47
2022-10-17T00:55:05.695Z,33.80
2022-10-17T00:57:40.203Z,38.05
2022-10-17T01:00:15.550Z,27.65
2022-10-17T01:02:53.168Z,33.53
2022-10-17T01:05:29.658Z,38.55
2022-10-17T01:08:04.459Z,36.50
2022-10-17T01:10:45.681Z,37.33
2022-10-17T01:13:24.572Z,44.15
2022-10-17T01:16:03.378Z,42.03
2022-10-17T01:18:48.103Z,35.92
2022-10-17T01:21:17.441Z,35.40
2022-10-17T01:24:22.308Z,35.50
2022-10-17T01:27:17.109Z,41.03
2022-10-17T01:30:00.838Z,34.90
2022-10-17T01:32:38.856Z,28.63
2022-10-17T01:35:15.169Z,42.00
2022-10-17T01:40:27.800Z,33.65
2022-10-17T01:43:07.990Z,32.80
2022-10-17T01:45:44.125Z,37.35
2022-10-17T01:48:22.341Z,39.92
2022-10-17T01:50:57.027Z,41.13
2022-10-17T01:53:32.967Z,44.95
2022-10-17T01:56:07.624Z,44.60
2022-10-17T01:58:44.360Z,42.03
2022-10-17T02:01:19.215Z,44.00
2022-10-17T02:03:56.121Z,39.60
2022-10-17T02:06:30.180Z,43.13
2022-10-17T02:09:04.185Z,36.80
2022-10-17T02:11:38.070Z,36.30
2022-10-17T02:14:22.264Z,44.50
2022-10-17T02:16:56.318Z,50.33
2022-10-17T02:19:38.177Z,32.60
2022-10-17T02:22:19.902Z,37.27
2022-10-17T02:24:56.088Z,35.25
2022-10-17T02:27:36.887Z,38.08
2022-10-17T02:30:13.768Z,33.60
2022-10-17T02:32:51.137Z,34.13
2022-10-17T02:35:31.452Z,34.80
2022-10-17T02:38:06.833Z,29.85
2022-10-17T02:40:41.181Z,38.47
2022-10-17T02:43:15.307Z,35.58
2022-10-17T02:45:49.108Z,38.20
2022-10-17T02:48:25.575Z,49.43
2022-10-17T02:51:07.525Z,44.90
2022-10-17T02:53:45.785Z,43.50
2022-10-17T02:56:22.688Z,37.70
2022-10-17T02:58:59.191Z,36.25
2022-10-17T03:01:33.141Z,33.28
2022-10-17T03:04:11.272Z,40.88
2022-10-17T03:06:47.772Z,37.90
2022-10-17T03:09:22.163Z,38.88
2022-10-17T03:11:56.022Z,45.28
2022-10-17T03:14:30.145Z,45.53
2022-10-17T03:17:04.403Z,45.55
2022-10-17T03:19:39.009Z,47.72
2022-10-17T03:22:16.496Z,50.70
2022-10-17T03:24:53.158Z,46.50
2022-10-17T03:27:27.448Z,46.65
2022-10-17T03:30:02.153Z,42.47
2022-10-17T03:32:38.312Z,45.40
2022-10-17T03:35:14.868Z,46.53
2022-10-17T03:37:56.369Z,48.47
2022-10-17T03:40:32.047Z,48.15
2022-10-17T03:43:06.081Z,44.70
2022-10-17T03:45:40.281Z,47.80
2022-10-17T03:48:15.195Z,43.97
2022-10-17T03:50:49.290Z,51.25
2022-10-17T03:53:26.443Z,46.60
2022-10-17T03:56:01.505Z,45.05
2022-10-17T03:58:36.262Z,59.03
2022-10-17T04:01:10.514Z,53.28
2022-10-17T04:03:45.538Z,49.50
2022-10-17T04:06:20.450Z,50.63
2022-10-17T04:08:58.484Z,45.70
2022-10-17T04:11:39.425Z,50.25
2022-10-17T04:14:15.425Z,46.60
2022-10-17T04:16:50.564Z,46.80
2022-10-17T04:19:28.739Z,48.20
2022-10-17T04:22:03.412Z,48.10
2022-10-17T04:24:45.321Z,50.30
2022-10-17T04:27:33.646Z,50.33
2022-10-17T04:30:10.472Z,48.10
2022-10-17T04:32:45.161Z,51.20
2022-10-17T04:35:24.466Z,49.35
2022-10-17T04:38:06.016Z,48.38
2022-10-17T04:40:44.045Z,48.17
2022-10-17T04:43:19.848Z,58.25
2022-10-17T04:45:54.032Z,48.95
2022-10-17T04:48:28.773Z,62.00
2022-10-17T04:51:04.697Z,56.20
2022-10-17T04:53:45.744Z,48.80
2022-10-17T04:56:23.853Z,54.10
2022-10-17T04:58:58.357Z,47.20
2022-10-17T05:01:33.528Z,45.95
2022-10-17T05:04:08.758Z,48.67
2022-10-17T05:06:43.406Z,53.85
2022-10-17T05:09:35.196Z,57.17
2022-10-17T05:12:12.416Z,51.00
2022-10-17T05:14:50.330Z,45.65
2022-10-17T05:17:25.478Z,44.70
2022-10-17T05:20:00.572Z,59.33
2022-10-17T05:22:41.996Z,48.30
2022-10-17T05:25:19.292Z,51.88
2022-10-17T05:27:58.491Z,55.38
2022-10-17T05:30:36.888Z,50.42
2022-10-17T05:33:15.756Z,45.97
2022-10-17T05:35:50.451Z,49.78
2022-10-17T05:38:24.368Z,37.15
2022-10-17T05:41:01.439Z,38.33
2022-10-17T05:43:39.614Z,37.42
2022-10-17T05:46:14.368Z,44.25
2022-10-17T05:48:49.125Z,65.70
2022-10-17T05:51:24.318Z,109.15
2022-10-17T05:53:59.200Z,65.95
2022-10-17T05:56:37.669Z,44.65
2022-10-17T05:59:16.412Z,37.45
2022-10-17T06:01:58.272Z,37.77
2022-10-17T06:04:32.328Z,40.13
2022-10-17T06:12:19.226Z,34.30
2022-10-17T06:17:34.793Z,39.20
2022-10-17T06:20:11.703Z,35.08
2022-10-17T06:22:46.429Z,35.50
2022-10-17T06:25:29.464Z,31.65
2022-10-17T06:28:04.682Z,33.70
2022-10-17T06:30:42.635Z,31.20
2022-10-17T06:33:18.251Z,29.90
2022-10-17T06:35:55.310Z,32.22
2022-10-17T06:38:31.652Z,29.65
2022-10-17T06:41:09.878Z,35.83
2022-10-17T06:43:46.819Z,30.35
2022-10-17T06:46:50.588Z,33.60
2022-10-17T06:49:26.487Z,32.63
2022-10-17T06:52:18.040Z,28.90
2022-10-17T06:55:24.623Z,28.10
2022-10-17T06:58:22.797Z,31.83
2022-10-17T07:01:16.355Z,30.95
2022-10-17T07:03:55.786Z,33.63
2022-10-17T07:06:30.659Z,30.63
2022-10-17T07:09:10.535Z,35.30
2022-10-17T07:11:45.984Z,29.95
2022-10-17T07:14:32.544Z,31.75
2022-10-17T07:17:08.753Z,32.60
2022-10-17T07:22:22.156Z,28.45
2022-10-17T07:25:00.839Z,26.45
2022-10-17T07:27:41.384Z,30.63
2022-10-17T07:30:16.171Z,28.00
2022-10-17T07:33:01.800Z,25.40
2022-10-17T07:35:41.213Z,25.80
2022-10-17T07:38:17.075Z,27.38
2022-10-17T07:40:58.003Z,28.55
2022-10-17T07:43:32.790Z,32.20
2022-10-17T07:46:08.757Z,30.55
2022-10-17T07:48:44.570Z,30.42
2022-10-17T07:51:23.498Z,27.40
2022-10-17T07:53:58.991Z,26.73
2022-10-17T07:56:33.943Z,25.40
2022-10-17T07:59:09.528Z,24.00
2022-10-17T08:04:18.804Z,26.20
2022-10-17T08:07:00.654Z,24.13
2022-10-17T08:09:46.439Z,25.00
2022-10-17T08:12:21.230Z,25.15
2022-10-17T08:14:55.672Z,28.20
2022-10-17T08:17:30.919Z,24.47
2022-10-17T08:20:05.810Z,28.23
2022-10-17T08:22:43.518Z,25.60
2022-10-17T08:25:19.008Z,25.92
2022-10-17T08:27:54.341Z,22.13
2022-10-17T08:30:30.910Z,26.80
2022-10-17T08:33:04.675Z,23.02
2022-10-17T08:35:40.063Z,25.15
2022-10-17T08:38:20.968Z,22.85
2022-10-17T08:40:56.815Z,26.42
2022-10-17T08:43:45.475Z,25.30
2022-10-17T08:46:20.953Z,25.80
2022-10-17T08:48:55.934Z,24.38
2022-10-17T08:51:32.553Z,21.10
2022-10-17T08:54:15.788Z,26.00
2022-10-17T08:56:52.989Z,25.38
2022-10-17T08:59:30.957Z,26.55
2022-10-17T09:02:04.763Z,24.93
2022-10-17T09:04:49.262Z,22.35
2022-10-17T09:07:25.567Z,20.65
2022-10-17T09:10:07.641Z,20.00
2022-10-17T09:12:51.002Z,23.85
2022-10-17T09:15:39.190Z,19.60
2022-10-17T09:18:16.692Z,23.73
2022-10-17T09:20:55.691Z,21.40
2022-10-17T09:23:32.855Z,23.33
2022-10-17T09:26:11.382Z,25.05
2022-10-17T09:28:45.559Z,20.80
2022-10-17T09:31:23.410Z,21.67
2022-10-17T09:33:58.867Z,23.20
2022-10-17T09:36:34.473Z,26.92
2022-10-17T09:39:09.612Z,23.30
2022-10-17T09:41:47.590Z,23.40
2022-10-17T09:44:23.302Z,18.65
2022-10-17T09:49:35.918Z,22.80
2022-10-17T09:52:13.970Z,22.00
2022-10-17T09:54:49.481Z,23.75
2022-10-17T09:57:26.642Z,19.95
2022-10-17T10:00:02.579Z,22.15
2022-10-17T10:02:41.056Z,18.45
2022-10-17T10:05:19.494Z,17.77
2022-10-17T10:08:04.845Z,17.20
2022-10-17T10:10:39.490Z,17.50
2022-10-17T10:13:23.412Z,19.17
2022-10-17T10:15:57.528Z,18.00
2022-10-17T10:18:33.676Z,19.33
2022-10-17T10:21:10.895Z,17.42
2022-10-17T10:23:45.534Z,16.50
2022-10-17T10:26:26.246Z,16.10
2022-10-17T10:29:04.816Z,16.67
2022-10-17T10:31:42.534Z,18.73
2022-10-17T10:34:19.444Z,15.65
2022-10-17T10:36:57.001Z,20.23
2022-10-17T10:39:40.289Z,17.63
2022-10-17T10:42:23.920Z,17.80
2022-10-17T10:45:02.453Z,16.20
2022-10-17T10:47:36.300Z,16.90
2022-10-17T10:50:18.756Z,18.80
2022-10-17T10:52:56.438Z,14.50
2022-10-17T10:55:31.656Z,14.05
2022-10-17T10:58:09.713Z,16.73
2022-10-17T11:00:47.073Z,20.48
2022-10-17T11:03:22.707Z,17.10
2022-10-17T11:08:47.506Z,15.32
2022-10-17T11:11:24.170Z,18.23
2022-10-17T11:14:08.804Z,14.07
2022-10-17T11:16:49.629Z,14.82
2022-10-17T11:19:28.572Z,18.67
2022-10-17T11:22:08.637Z,14.47
2022-10-17T11:24:45.469Z,17.60
2022-10-17T11:27:19.421Z,14.95
2022-10-17T11:29:53.473Z,14.98
2022-10-17T11:32:34.064Z,14.38
2022-10-17T11:35:11.870Z,12.45
2022-10-17T11:37:49.815Z,17.40
2022-10-17T11:40:28.400Z,15.50
2022-10-17T11:43:03.540Z,11.88
2022-10-17T11:45:39.372Z,15.52
2022-10-17T11:48:19.349Z,16.60
2022-10-17T11:53:51.613Z,17.67
2022-10-17T11:56:29.779Z,14.93
2022-10-17T11:59:11.266Z,13.88
2022-10-17T12:01:47.684Z,15.02
2022-10-17T12:04:37.662Z,16.77
2022-10-17T12:07:08.637Z,14.35
2022-10-17T12:09:46.352Z,15.32
2022-10-17T12:12:28.578Z,13.05
2022-10-17T12:15:31.931Z,16.10
2022-10-17T12:18:06.718Z,12.05
2022-10-17T12:20:44.233Z,12.10
2022-10-17T12:23:26.126Z,12.30
2022-10-17T12:26:04.813Z,15.90
2022-10-17T12:28:45.357Z,14.73
2022-10-17T12:31:32.504Z,11.32
2022-10-17T12:34:09.168Z,15.90
2022-10-17T12:36:47.394Z,10.63
2022-10-17T12:39:45.553Z,11.93
2022-10-17T12:42:37.390Z,11.30
2022-10-17T12:45:47.758Z,14.05
2022-10-17T12:48:52.981Z,11.00
2022-10-17T12:51:35.852Z,9.98
2022-10-17T12:54:17.687Z,11.95
2022-10-17T12:56:52.458Z,12.27
2022-10-17T12:59:28.912Z,12.97
2022-10-17T13:02:04.806Z,12.15
2022-10-17T13:04:39.689Z,14.50
2022-10-17T13:07:17.281Z,13.27
2022-10-17T13:09:54.371Z,12.93
2022-10-17T13:12:28.913Z,11.10
2022-10-17T13:15:03.504Z,12.03
2022-10-17T13:17:40.679Z,13.20
2022-10-17T13:20:29.014Z,11.00
2022-10-17T13:23:06.137Z,9.73
2022-10-17T13:25:43.596Z,11.55
2022-10-17T13:28:17.453Z,11.40
2022-10-17T13:30:53.673Z,10.35
2022-10-17T13:33:36.127Z,10.52
2022-10-17T13:36:11.828Z,11.15
2022-10-17T13:38:46.533Z,9.40
2022-10-17T13:41:42.046Z,10.50
2022-10-17T13:44:16.834Z,12.40
2022-10-17T13:46:51.737Z,13.80
2022-10-17T13:49:30.269Z,13.98
2022-10-17T13:52:05.439Z,10.43
2022-10-17T13:54:40.740Z,12.13
2022-10-17T13:57:26.143Z,20.85
2022-10-17T14:00:05.133Z,12.35
2022-10-17T14:02:46.635Z,15.63
2022-10-17T14:05:23.544Z,14.05
2022-10-17T14:08:11.357Z,12.65
2022-10-17T14:10:48.047Z,13.13
2022-10-17T14:13:26.636Z,11.55
2022-10-17T14:15:57.893Z,9.30
2022-10-17T14:18:36.403Z,11.77
2022-10-17T14:24:29.359Z,14.30
2022-10-17T14:27:05.010Z,10.75
2022-10-17T14:32:35.081Z,9.70
2022-10-17T14:35:30.654Z,11.38
2022-10-17T14:38:06.150Z,9.13
2022-10-17T14:40:40.416Z,8.43
2022-10-17T14:43:19.881Z,8.68
2022-10-17T14:45:53.471Z,8.60
2022-10-17T14:48:32.242Z,12.02
2022-10-17T14:51:11.048Z,7.80
2022-10-17T14:53:45.650Z,8.50
2022-10-17T14:56:27.839Z,8.90
2022-10-17T14:58:58.849Z,9.10
2022-10-17T15:01:33.423Z,10.05
2022-10-17T15:04:10.989Z,9.05
2022-10-17T15:06:44.499Z,8.52
2022-10-17T15:09:18.545Z,9.50
2022-10-17T15:11:52.446Z,13.43
2022-10-17T15:14:26.624Z,8.70
2022-10-17T15:17:00.524Z,11.10
2022-10-17T15:19:37.879Z,11.35
2022-10-17T15:22:12.391Z,8.32
2022-10-17T15:24:46.440Z,11.30
2022-10-17T15:27:21.617Z,11.97
2022-10-17T15:29:56.749Z,10.13
2022-10-17T15:32:31.357Z,10.52
2022-10-17T15:35:09.751Z,11.15
2022-10-17T15:37:47.064Z,10.82
2022-10-17T15:40:22.439Z,11.70
2022-10-17T15:42:56.498Z,10.93
2022-10-17T15:45:30.873Z,10.10
2022-10-17T15:48:11.220Z,11.60
2022-10-17T15:50:48.956Z,9.05
2022-10-17T15:53:24.390Z,9.43
2022-10-17T15:55:58.772Z,13.00
2022-10-17T15:58:36.855Z,13.70
2022-10-17T16:01:14.699Z,8.82
2022-10-17T16:03:50.659Z,11.82
2022-10-17T16:06:28.717Z,9.55
2022-10-17T16:09:03.572Z,12.57
2022-10-17T16:11:38.521Z,9.07
2022-10-17T16:14:14.392Z,9.70
2022-10-17T16:16:48.288Z,10.95
2022-10-17T16:19:23.271Z,10.60
2022-10-17T16:22:04.320Z,12.63
2022-10-17T16:24:39.285Z,15.07
2022-10-17T16:27:13.487Z,11.23
2022-10-17T16:29:47.230Z,9.65
2022-10-17T16:32:21.232Z,12.02
2022-10-17T16:34:55.401Z,12.40
2022-10-17T16:37:31.974Z,9.02
2022-10-17T16:40:06.376Z,10.90
2022-10-17T16:42:39.460Z,11.15
2022-10-17T16:45:14.156Z,12.95
2022-10-17T16:47:48.378Z,11.98
2022-10-17T16:50:22.829Z,8.80
2022-10-17T16:53:00.048Z,11.30
2022-10-17T16:55:34.396Z,10.23
2022-10-17T16:58:08.322Z,10.00
2022-10-17T17:00:42.347Z,10.63
2022-10-17T17:03:16.298Z,9.43
2022-10-17T17:05:53.384Z,11.70
2022-10-17T17:08:29.878Z,11.65
2022-10-17T17:11:04.172Z,10.40
2022-10-17T17:13:38.358Z,9.70
2022-10-17T17:16:14.563Z,11.85
2022-10-17T17:18:49.402Z,9.23
2022-10-17T17:21:23.232Z,10.80
2022-10-17T17:24:00.728Z,9.35
2022-10-17T17:26:36.182Z,12.30
2022-10-17T17:29:10.984Z,11.27
2022-10-17T17:31:45.244Z,12.43
2022-10-17T17:34:19.247Z,10.77
2022-10-17T17:36:53.269Z,10.17
2022-10-17T17:39:29.907Z,11.13
2022-10-17T17:42:04.587Z,10.13
2022-10-17T17:44:38.298Z,9.53
2022-10-17T17:47:12.796Z,10.25
2022-10-17T17:49:48.509Z,10.80
2022-10-17T17:52:22.764Z,12.13
2022-10-17T17:55:00.910Z,10.02
2022-10-17T17:57:35.552Z,10.05
2022-10-17T18:00:11.011Z,12.67
2022-10-17T18:02:46.221Z,9.63
2022-10-17T18:05:18.964Z,8.35
2022-10-17T18:07:55.852Z,12.00
2022-10-17T18:10:34.342Z,10.02
2022-10-17T18:13:07.679Z,9.60
2022-10-17T18:15:38.802Z,11.35
2022-10-17T18:18:13.640Z,14.57
2022-10-17T18:20:48.238Z,15.95
2022-10-17T18:23:23.115Z,10.98
2022-10-17T18:26:02.288Z,13.50
2022-10-17T18:28:37.594Z,12.18
2022-10-17T18:31:12.240Z,10.60
2022-10-17T18:33:47.080Z,12.98
2022-10-17T18:36:21.881Z,14.13
2022-10-17T18:39:00.461Z,8.90
2022-10-17T18:41:38.567Z,11.75
2022-10-17T18:44:14.012Z,9.27
2022-10-17T18:49:25.523Z,10.15
2022-10-17T18:52:00.869Z,13.88
2022-10-17T18:54:36.719Z,10.10
2022-10-17T18:59:48.951Z,12.00
2022-10-17T19:02:24.012Z,10.00
2022-10-17T19:04:58.682Z,14.38
2022-10-17T19:07:33.545Z,16.58
2022-10-17T19:10:07.961Z,20.67
2022-10-17T19:12:45.094Z,13.73
2022-10-17T19:15:22.474Z,17.95
2022-10-17T19:18:00.623Z,13.23
2022-10-17T19:20:37.197Z,12.73
2022-10-17T19:23:11.647Z,17.90
2022-10-17T19:25:46.141Z,14.40
2022-10-17T19:28:23.489Z,13.65
2022-10-17T19:30:57.584Z,14.05
2022-10-17T19:33:31.370Z,14.45
2022-10-17T19:36:07.758Z,13.02
2022-10-17T19:38:42.645Z,13.45
2022-10-17T19:41:17.270Z,11.53
2022-10-17T19:43:54.805Z,11.40
2022-10-17T19:46:30.369Z,12.55
2022-10-17T19:49:04.630Z,12.43
2022-10-17T19:51:38.942Z,15.45
2022-10-17T19:54:13.496Z,10.02
2022-10-17T19:56:50.261Z,13.97
2022-10-17T19:59:28.694Z,15.80
2022-10-17T20:02:03.189Z,16.88
2022-10-17T20:04:49.474Z,18.50
2022-10-17T20:07:31.893Z,15.15
2022-10-17T20:10:08.929Z,13.45
2022-10-17T20:12:44.413Z,12.23
2022-10-17T20:15:23.173Z,13.82
2022-10-17T20:17:58.066Z,11.73
2022-10-17T20:20:33.286Z,14.20
2022-10-17T20:23:09.168Z,12.00
2022-10-17T20:25:43.564Z,10.70
2022-10-17T20:28:17.641Z,16.60
2022-10-17T20:30:54.418Z,16.50
2022-10-17T20:33:32.036Z,14.75
2022-10-17T20:36:08.316Z,14.40
2022-10-17T20:38:43.250Z,11.15
2022-10-17T20:41:17.723Z,10.50
2022-10-17T20:43:53.644Z,12.07
2022-10-17T20:46:44.310Z,13.50
2022-10-17T20:49:24.148Z,12.47
2022-10-17T20:51:59.171Z,13.40
2022-10-17T20:54:33.823Z,12.53
2022-10-17T20:57:09.664Z,13.20
2022-10-17T20:59:45.787Z,12.20
2022-10-17T21:02:26.491Z,16.53
2022-10-17T21:05:02.633Z,18.58
2022-10-17T21:07:37.869Z,14.50
2022-10-17T21:10:34.514Z,16.05
2022-10-17T21:13:08.085Z,12.43
2022-10-17T21:15:45.573Z,17.23
2022-10-17T21:18:23.646Z,14.20
2022-10-17T21:20:59.085Z,12.75
2022-10-17T21:23:33.996Z,10.80
2022-10-17T21:26:10.290Z,13.00
2022-10-17T21:28:45.600Z,12.07
2022-10-17T21:31:20.780Z,10.25
2022-10-17T21:33:59.212Z,13.97
2022-10-17T21:36:33.444Z,11.65
2022-10-17T21:41:43.591Z,10.10
2022-10-17T21:44:19.641Z,9.05
2022-10-17T21:46:53.796Z,9.15
2022-10-17T21:49:30.686Z,10.97
2022-10-17T21:52:07.444Z,11.20
2022-10-17T21:54:42.170Z,20.35
2022-10-17T21:59:53.158Z,10.02
2022-10-17T22:02:28.401Z,13.30
2022-10-17T22:05:05.684Z,9.00
2022-10-17T22:07:40.306Z,13.95
2022-10-17T22:10:14.603Z,10.85
2022-10-17T22:12:49.281Z,11.23
2022-10-17T22:15:24.044Z,10.25
2022-10-17T22:17:59.389Z,14.80
2022-10-17T22:20:36.941Z,15.10
2022-10-17T22:23:12.204Z,12.20
2022-10-17T22:25:46.977Z,15.10
2022-10-17T22:28:22.029Z,11.73
2022-10-17T22:30:57.411Z,16.20
2022-10-17T22:33:32.466Z,12.10
2022-10-17T22:36:10.514Z,11.30
2022-10-17T22:38:45.112Z,13.73
2022-10-17T22:41:19.872Z,10.45
2022-10-17T22:43:54.698Z,9.52
2022-10-17T22:46:29.112Z,10.05
2022-10-17T22:49:05.815Z,10.70
2022-10-17T22:51:50.010Z,10.90
2022-10-17T22:54:25.191Z,10.25
2022-10-17T22:57:01.791Z,8.20
2022-10-17T22:59:37.098Z,9.85
2022-10-17T23:02:11.601Z,13.20
2022-10-17T23:04:45.817Z,12.35
2022-10-17T23:07:26.258Z,13.37
2022-10-17T23:10:01.204Z,11.87
2022-10-17T23:12:38.077Z,12.00
2022-10-17T23:15:14.370Z,13.65
2022-10-17T23:17:49.600Z,17.37
2022-10-17T23:20:24.039Z,13.90
2022-10-17T23:23:01.641Z,12.07
2022-10-17T23:25:38.964Z,10.70
2022-10-17T23:28:13.592Z,12.33
2022-10-17T23:30:48.101Z,10.80
2022-10-17T23:33:23.029Z,11.23
2022-10-17T23:35:57.581Z,10.75
2022-10-17T23:38:37.284Z,11.05
2022-10-17T23:41:11.403Z,12.55
2022-10-17T23:43:45.663Z,10.40
2022-10-17T23:46:20.240Z,12.77
2022-10-17T23:48:57.003Z,14.40
2022-10-17T23:51:32.163Z,13.25
2022-10-17T23:54:10.011Z,10.57
2022-10-17T23:56:46.173Z,15.00
2022-10-17T23:59:21.961Z,12.45
